Terminal Aerodrome Forecast
Issued by NWS

Home | Current Version | Previous Version | Text Only | Print | Product List | Glossary On
Versions: 1 2 3 4 5 6 7 8 9 10 11 12 13 14 15 16 17 18 19 20 21 22 23 24 25 26 27 28 29 30
292
FTUS45 KSLC 160551
TAFENV
TAF
KENV 160551Z 1606/1706 VRB04KT P6SM VCSH OVC013
     FM161800 VRB04KT P6SM OVC013
     FM170100 30007KT P6SM SCT010 BKN070=

USA.gov is the U.S. government's official web portal to all federal, state and local government web resources and services.